Terminal Aerodrome Forecast
Issued by NWS Amarillo, TX

Home | Current Version | Previous Version | Text Only | Print | Product List | Glossary On
Versions: 1 2 3 4 5 6 7 8 9 10 11 12 13 14 15 16
000
FTUS44 KAMA 041700
TAFGUY
TAF
KGUY 041720Z 0418/0518 11008KT P6SM SCT060 BKN110
     FM041900 16015G24KT P6SM VCSH SCT035 BKN100
     FM042300 17014KT 4SM TSRA OVC020CB
     FM050500 16010KT 5SM SHRA VCTS OVC015CB
     FM050800 14010KT 5SM SHRA OVC010
     FM051400 17017G27KT 5SM SHRA OVC006=

USA.gov is the U.S. government's official web portal to all federal, state and local government web resources and services.